LFRU 261500Z AUTO 03012KT 350V050 CAVOK 20/15 Q1021

ElémentsDécodage
LFRU Station météo située sur l'aérodrome de MORLAIX Ploujeau
261500Z émis le 26 du mois à 15h00 UTC
AUTO Bulletin édité par un automate
03012KT vent du 030°, 12 noeuds
350V050 vent de direction variable entre 350° et 050°
CAVOK Ceiling And Visibility OK
- Visibilité de 10 Km ou plus
- Pas de nuage au-dessous de 1500m ou au-dessous de l'altitude minimale du secteur la plus élevée (si>1500m) et absence de CB
- pas de temps présent significatif
20/15 température 20°C, point de rosée 15°C
 soit une humidité relative de 73%
Q1021 la pression au niveau de la mer (QNH) est de 1021 hPa